This is the latest recevied weather packets stored in our database for station/object YN3ZBQ-13. If no packets are shown the sender has not sent any weather packets the latest 10 day(s).
| Time | Temp. | Humidity | Pressure | Rain* | Wind** | Luminosity | Snow |
|---|---|---|---|---|---|---|---|
| 1777643482 | 27.78° C | 64% | 1010 hPa | 0 mm | - | - | - |
| 1777642882 | 28.33° C | 64% | 1010 hPa | 0 mm | - | - | - |
| 1777642282 | 25.56° C | 70% | 1010 hPa | 0 mm | - | - | - |
| 1777641681 | 26.11° C | 70% | 1010 hPa | 0 mm | - | - | - |
| 1777641081 | 26.67° C | 70% | 1010 hPa | 0 mm | - | - | - |
| 1777640480 | 26.67° C | 70% | 1010 hPa | 0 mm | - | - | - |
| 1777639880 | 25.56° C | 72% | 1010 hPa | 0 mm | - | - | - |
| 1777639280 | 26.11° C | 72% | 1010 hPa | 0 mm | - | - | - |
| 1777638679 | 24.44° C | 77% | 1009 hPa | 0 mm | - | - | - |
| 1777638079 | 23.89° C | 77% | 1009 hPa | 0 mm | - | - | - |
| 1777637478 | 24.44° C | 77% | 1009 hPa | 0 mm | - | - | - |
| 1777636878 | 23.89° C | 77% | 1009 hPa | 0 mm | - | - | - |
| 1777636277 | 24.44° C | 77% | 1009 hPa | 0 mm | - | - | - |
| 1777635677 | 24.44° C | 77% | 1009 hPa | 0 mm | - | - | - |
| 1777635077 | 23.33° C | 78% | 1009 hPa | 0 mm | - | - | - |
| 1777634477 | 23.89° C | 78% | 1008 hPa | 0 mm | - | - | - |
| 1777633877 | 24.44° C | 78% | 1008 hPa | 0 mm | - | - | - |
| 1777633276 | 24.44° C | 78% | 1008 hPa | 0 mm | - | - | - |
| 1777632676 | 23.33° C | 77% | 1008 hPa | 0 mm | - | - | - |
| 1777632076 | 23.89° C | 77% | 1008 hPa | 0 mm | - | - | - |
| 1777631476 | 23.33° C | 75% | 1008 hPa | 0 mm | - | - | - |
| 1777630875 | 23.33° C | 75% | 1008 hPa | 0 mm | - | - | - |
| 1777630275 | 23.89° C | 75% | 1008 hPa | 0 mm | - | - | - |
| 1777629675 | 24.44° C | 75% | 1008 hPa | 0 mm | - | - | - |
| 1777629074 | 25° C | 75% | 1008 hPa | 0 mm | - | - | - |
* Rain latest hour (hover to see other rain measurements)
** Current wind speed in m/s (hover to see current wind gust speed)